Time;durP1;ratioP1;P1;durP2;ratioP2;P2;SDS_P1;SDS_P2;PMS_P1;PMS_P2;Temp;Humidity;BMP_temperature;BMP_pressure;BME280_temperature;BME280_humidity;BME280_pressure;Samples;Min_cycle;Max_cycle;Signal;HPM_P1;HPM_P2
2023/05/17 00:01:25;;;;;;;7.05;1.55;;;8.60;99.90;;;;;;4989387;28;20393;-75
2023/05/17 00:03:53;;;;;;;4.30;1.20;;;8.50;99.90;;;;;;4974021;28;20050;-75
2023/05/17 00:06:21;;;;;;;6.85;2.10;;;8.50;99.90;;;;;;4974427;28;20165;-75
2023/05/17 00:08:47;;;;;;;6.30;1.85;;;8.50;99.90;;;;;;4974086;28;20146;-75
2023/05/17 00:11:13;;;;;;;6.20;1.85;;;8.50;99.90;;;;;;4974008;28;20038;-75
2023/05/17 00:13:41;;;;;;;6.53;1.88;;;8.40;99.90;;;;;;4974047;28;20035;-75
2023/05/17 00:16:07;;;;;;;6.38;1.60;;;8.40;99.90;;;;;;4974157;28;20078;-75
2023/05/17 00:18:33;;;;;;;7.03;1.33;;;8.40;99.90;;;;;;4974022;28;20031;-75
2023/05/17 00:20:59;;;;;;;6.32;1.48;;;8.40;99.90;;;;;;4972969;28;20108;-75
2023/05/17 00:23:24;;;;;;;5.88;2.22;;;8.40;99.90;;;;;;4972598;28;20030;-75
2023/05/17 00:25:50;;;;;;;6.82;1.60;;;8.40;99.90;;;;;;4974110;28;20462;-75
2023/05/17 00:28:16;;;;;;;4.60;1.33;;;8.30;99.90;;;;;;4974009;28;20023;-75
2023/05/17 00:30:41;;;;;;;8.90;1.70;;;8.30;99.90;;;;;;4986966;28;20026;-74
2023/05/17 00:33:13;;;;;;;5.82;1.80;;;8.30;99.90;;;;;;4982155;28;20057;-75
2023/05/17 00:35:39;;;;;;;4.65;1.77;;;8.30;99.90;;;;;;4959385;28;20030;-77
2023/05/17 00:38:07;;;;;;;7.38;1.92;;;8.30;99.90;;;;;;4975112;28;20031;-73
2023/05/17 00:40:35;;;;;;;7.00;1.67;;;8.30;99.90;;;;;;4976822;28;20041;-74
2023/05/17 00:43:04;;;;;;;3.22;1.45;;;8.20;99.90;;;;;;4963977;28;20098;-74
2023/05/17 00:45:36;;;;;;;4.40;1.83;;;8.20;99.90;;;;;;4974021;28;20038;-74
2023/05/17 00:48:01;;;;;;;6.72;2.08;;;8.20;99.90;;;;;;4966934;28;20042;-74
2023/05/17 00:50:27;;;;;;;5.50;1.95;;;8.20;99.90;;;;;;4972622;28;20480;-74
2023/05/17 00:52:54;;;;;;;4.43;1.58;;;8.20;99.90;;;;;;4974147;28;20127;-74
2023/05/17 00:55:20;;;;;;;5.82;1.70;;;8.10;99.90;;;;;;4980081;28;20500;-74
2023/05/17 00:57:45;;;;;;;3.58;1.50;;;8.10;99.90;;;;;;4970846;28;20030;-73
2023/05/17 01:00:14;;;;;;;3.33;1.23;;;8.00;99.90;;;;;;4980771;28;20037;-74
2023/05/17 01:02:40;;;;;;;2.58;1.50;;;8.00;99.90;;;;;;4972886;28;20019;-74
2023/05/17 01:05:06;;;;;;;7.00;1.85;;;8.10;99.90;;;;;;4971917;28;20098;-74
2023/05/17 01:07:31;;;;;;;3.67;1.27;;;8.00;99.90;;;;;;4978908;28;20073;-74
2023/05/17 01:09:58;;;;;;;6.63;1.80;;;8.00;99.90;;;;;;4958804;28;20031;-73
2023/05/17 01:12:54;;;;;;;4.80;1.80;;;8.00;99.90;;;;;;4972809;28;21260;-74
2023/05/17 01:15:30;;;;;;;5.22;2.10;;;8.00;99.90;;;;;;4973030;28;20093;-74
2023/05/17 01:18:22;;;;;;;7.30;1.60;;;8.00;99.90;;;;;;4977432;28;20039;-74
2023/05/17 01:20:51;;;;;;;3.20;1.63;;;8.00;99.90;;;;;;4982795;28;20030;-74
2023/05/17 01:23:26;;;;;;;11.55;2.45;;;7.90;99.90;;;;;;4971055;28;20015;-74
2023/05/17 01:26:07;;;;;;;3.72;1.48;;;7.90;99.90;;;;;;4984584;28;20118;-74
2023/05/17 01:28:34;;;;;;;6.18;1.73;;;7.90;99.90;;;;;;4957426;28;20387;-75
2023/05/17 01:31:07;;;;;;;4.25;2.05;;;7.90;99.90;;;;;;4970222;28;20058;-75
2023/05/17 01:33:37;;;;;;;9.07;1.83;;;7.90;99.90;;;;;;4973203;28;20023;-75
2023/05/17 01:36:02;;;;;;;5.55;2.10;;;7.90;99.90;;;;;;4962420;28;20067;-74
2023/05/17 01:38:28;;;;;;;4.15;1.65;;;7.90;99.90;;;;;;4960871;28;20046;-74
2023/05/17 01:41:15;;;;;;;4.85;1.75;;;7.80;99.90;;;;;;4971690;28;20027;-74
2023/05/17 01:43:59;;;;;;;4.53;1.75;;;7.80;99.90;;;;;;4966290;28;20030;-74
2023/05/17 01:46:38;;;;;;;9.40;3.90;;;7.80;99.90;;;;;;4972616;28;20046;-74
2023/05/17 01:49:29;;;;;;;9.38;6.05;;;7.80;99.90;;;;;;4962693;28;20114;-74
2023/05/17 01:52:07;;;;;;;13.85;8.60;;;7.70;99.90;;;;;;4968842;28;20456;-74
2023/05/17 01:54:49;;;;;;;16.98;11.48;;;7.70;99.90;;;;;;4969017;28;20173;-73
2023/05/17 01:57:16;;;;;;;17.70;13.80;;;7.70;99.90;;;;;;4974316;28;20023;-74
2023/05/17 01:59:44;;;;;;;25.27;15.95;;;7.60;99.90;;;;;;4983935;28;20026;-74
2023/05/17 02:02:09;;;;;;;22.00;15.32;;;7.60;99.90;;;;;;4972522;28;20102;-74
2023/05/17 02:04:35;;;;;;;20.38;14.40;;;7.50;99.90;;;;;;4971280;28;20097;-74
2023/05/17 02:07:07;;;;;;;18.63;14.50;;;7.50;99.90;;;;;;4971633;28;20678;-74
2023/05/17 02:09:32;;;;;;;16.02;10.77;;;7.40;99.90;;;;;;4970591;28;20082;-73
2023/05/17 02:12:04;;;;;;;16.20;11.60;;;7.50;99.90;;;;;;4971216;28;20433;-74
2023/05/17 02:14:30;;;;;;;15.32;9.65;;;7.40;99.90;;;;;;4972456;28;20034;-74
2023/05/17 02:16:56;;;;;;;10.98;7.72;;;7.40;99.90;;;;;;4971163;28;20489;-73
2023/05/17 02:19:21;;;;;;;12.40;7.88;;;7.40;99.90;;;;;;4972312;28;20031;-74
2023/05/17 02:21:47;;;;;;;9.88;5.95;;;7.30;99.90;;;;;;4972679;28;20058;-74
2023/05/17 02:24:12;;;;;;;12.05;5.53;;;7.30;99.90;;;;;;4968449;28;20034;-73
2023/05/17 02:26:41;;;;;;;9.73;4.35;;;7.30;99.90;;;;;;4968018;28;20027;-73
2023/05/17 02:29:10;;;;;;;9.88;4.55;;;7.30;99.90;;;;;;4970240;28;20063;-73
2023/05/17 02:31:35;;;;;;;9.20;3.17;;;7.20;99.90;;;;;;4989298;28;20389;-73
2023/05/17 02:34:01;;;;;;;6.55;2.85;;;7.20;99.90;;;;;;4972232;28;20035;-73
2023/05/17 02:36:27;;;;;;;5.88;2.63;;;7.20;99.90;;;;;;4975575;28;20031;-73
2023/05/17 02:38:53;;;;;;;4.70;2.60;;;7.20;99.90;;;;;;4978015;28;20035;-73
2023/05/17 02:41:18;;;;;;;7.75;2.70;;;7.10;99.90;;;;;;4975327;28;20507;-73
2023/05/17 02:43:44;;;;;;;6.22;2.40;;;7.10;99.90;;;;;;4975696;28;20431;-73
2023/05/17 02:46:10;;;;;;;7.80;2.25;;;7.00;99.90;;;;;;4977259;28;20038;-73
2023/05/17 02:48:38;;;;;;;5.13;2.00;;;7.00;99.90;;;;;;4978389;28;20019;-73
2023/05/17 02:51:04;;;;;;;2.80;1.70;;;7.00;99.90;;;;;;4974927;28;20533;-73
2023/05/17 02:53:30;;;;;;;7.13;2.60;;;7.00;99.90;;;;;;4985848;28;20035;-73
2023/05/17 02:55:56;;;;;;;5.35;2.20;;;7.00;99.90;;;;;;4990460;28;20026;-73
2023/05/17 02:58:26;;;;;;;4.50;2.10;;;7.00;99.90;;;;;;4990209;28;20015;-74
2023/05/17 03:00:52;;;;;;;6.05;1.80;;;6.90;99.90;;;;;;4974168;28;20062;-74
2023/05/17 03:03:18;;;;;;;7.22;2.00;;;6.90;99.90;;;;;;4975941;28;20059;-73
2023/05/17 03:05:46;;;;;;;8.23;1.83;;;6.90;99.90;;;;;;4975698;28;20030;-73
2023/05/17 03:08:12;;;;;;;6.82;1.48;;;6.80;99.90;;;;;;4975962;28;20139;-73
2023/05/17 03:10:37;;;;;;;3.90;1.70;;;6.80;99.90;;;;;;4975014;28;20490;-73
2023/05/17 03:13:03;;;;;;;5.90;1.52;;;6.80;99.90;;;;;;4979759;28;20031;-74
2023/05/17 03:15:29;;;;;;;3.65;1.80;;;6.80;99.90;;;;;;4990096;28;20034;-75
2023/05/17 03:17:55;;;;;;;5.63;2.13;;;6.70;99.90;;;;;;4975232;28;20023;-75
2023/05/17 03:20:21;;;;;;;5.72;2.10;;;6.70;99.90;;;;;;4975230;28;20034;-75
2023/05/17 03:22:47;;;;;;;4.72;1.83;;;6.70;99.90;;;;;;4971738;28;20031;-74
2023/05/17 03:25:13;;;;;;;5.57;1.50;;;6.60;99.90;;;;;;4976322;28;20027;-74
2023/05/17 03:27:38;;;;;;;6.03;1.52;;;6.60;99.90;;;;;;4973399;28;20023;-75
2023/05/17 03:30:05;;;;;;;3.28;1.48;;;6.60;99.90;;;;;;4974796;28;20041;-74
2023/05/17 03:32:30;;;;;;;5.15;1.60;;;6.60;99.90;;;;;;4973995;28;20106;-75
2023/05/17 03:34:56;;;;;;;5.32;1.88;;;6.60;99.90;;;;;;4974611;28;20468;-74
2023/05/17 03:37:22;;;;;;;3.60;1.50;;;6.60;99.90;;;;;;4974593;28;20582;-74
2023/05/17 03:39:47;;;;;;;5.43;1.63;;;6.50;99.90;;;;;;4974728;28;20047;-75
2023/05/17 03:42:13;;;;;;;7.35;2.13;;;6.50;99.90;;;;;;4974508;28;20019;-75
2023/05/17 03:44:39;;;;;;;7.03;1.95;;;6.50;99.90;;;;;;4974854;28;20030;-75
2023/05/17 03:47:11;;;;;;;3.25;1.38;;;6.50;99.90;;;;;;4972680;28;20022;-74
2023/05/17 03:49:37;;;;;;;3.75;1.70;;;6.50;99.90;;;;;;4975054;28;20397;-74
2023/05/17 03:52:03;;;;;;;7.40;1.75;;;6.50;99.90;;;;;;4974773;28;20034;-75
2023/05/17 03:54:29;;;;;;;6.07;1.63;;;6.40;99.90;;;;;;4974922;28;20109;-75
2023/05/17 03:56:54;;;;;;;5.05;1.50;;;6.40;99.90;;;;;;4974476;28;20158;-75
2023/05/17 03:59:20;;;;;;;5.82;1.75;;;6.40;99.90;;;;;;4973264;28;20027;-75
2023/05/17 04:01:46;;;;;;;3.17;1.77;;;6.40;99.90;;;;;;4974898;28;20026;-74
2023/05/17 04:04:11;;;;;;;6.28;1.55;;;6.40;99.90;;;;;;4973628;28;20029;-74
2023/05/17 04:06:38;;;;;;;4.45;1.55;;;6.40;99.90;;;;;;4963760;28;20026;-74
2023/05/17 04:09:03;;;;;;;8.93;2.00;;;6.50;99.90;;;;;;4974110;28;20421;-74
2023/05/17 04:11:29;;;;;;;2.95;1.50;;;6.40;99.90;;;;;;4994187;23;20050;-76
2023/05/17 04:13:55;;;;;;;10.38;2.03;;;6.40;99.90;;;;;;4976561;28;20026;-76
2023/05/17 04:16:27;;;;;;;6.07;2.10;;;6.50;99.90;;;;;;4972808;28;20027;-76
2023/05/17 04:18:52;;;;;;;8.50;1.67;;;6.50;99.90;;;;;;4972110;28;20401;-76
2023/05/17 04:21:18;;;;;;;3.85;1.70;;;6.40;99.90;;;;;;4972635;28;20030;-76
2023/05/17 04:23:44;;;;;;;4.68;1.35;;;6.40;99.90;;;;;;4972594;28;20027;-76
2023/05/17 04:26:10;;;;;;;6.28;1.85;;;6.40;99.90;;;;;;4977268;28;20019;-77
2023/05/17 04:28:38;;;;;;;4.82;1.60;;;6.50;99.90;;;;;;4973537;28;20081;-77
2023/05/17 04:31:07;;;;;;;5.97;1.83;;;6.50;99.90;;;;;;4968571;28;20019;-77
2023/05/17 04:33:33;;;;;;;7.50;1.70;;;6.50;99.90;;;;;;4968615;28;20098;-77
2023/05/17 04:35:58;;;;;;;7.40;1.30;;;6.50;99.90;;;;;;4987406;28;20113;-76
2023/05/17 04:38:24;;;;;;;5.13;1.58;;;6.60;99.90;;;;;;4973984;28;20086;-76
2023/05/17 04:40:50;;;;;;;12.45;2.58;;;6.60;99.90;;;;;;4970301;28;20043;-76
2023/05/17 04:43:15;;;;;;;4.38;1.63;;;6.60;99.90;;;;;;4980500;28;20141;-77
2023/05/17 04:45:41;;;;;;;4.22;1.70;;;6.70;99.90;;;;;;4968233;28;20389;-77
2023/05/17 04:48:07;;;;;;;6.32;1.60;;;6.70;99.90;;;;;;4975419;28;20059;-76
2023/05/17 04:50:33;;;;;;;8.98;2.03;;;6.80;99.90;;;;;;4970932;28;20030;-76
2023/05/17 04:52:58;;;;;;;4.88;1.80;;;6.80;99.90;;;;;;4977224;28;20031;-77
2023/05/17 04:55:24;;;;;;;6.03;1.77;;;6.90;99.90;;;;;;4973122;28;20369;-77
2023/05/17 04:57:50;;;;;;;9.02;1.98;;;6.90;99.90;;;;;;4972869;28;20082;-75
2023/05/17 05:00:17;;;;;;;6.90;1.50;;;7.00;99.90;;;;;;4973060;28;20078;-76
2023/05/17 05:02:43;;;;;;;4.53;1.52;;;7.10;99.90;;;;;;4973747;28;20077;-76
2023/05/17 05:05:09;;;;;;;4.10;1.30;;;7.20;99.90;;;;;;4973021;28;20034;-76
2023/05/17 05:07:35;;;;;;;5.15;1.83;;;7.40;99.90;;;;;;4977981;28;20389;-76
2023/05/17 05:10:01;;;;;;;4.20;1.73;;;7.50;99.90;;;;;;4978267;28;20023;-78
2023/05/17 05:12:27;;;;;;;4.70;1.52;;;7.60;99.90;;;;;;4971036;28;21321;-77
2023/05/17 05:14:52;;;;;;;7.25;2.42;;;7.70;99.90;;;;;;4973034;28;20102;-76
2023/05/17 05:17:18;;;;;;;5.20;2.42;;;7.90;99.90;;;;;;4978926;28;20030;-76
2023/05/17 05:19:44;;;;;;;4.95;1.98;;;8.00;99.90;;;;;;4973874;28;20041;-76
2023/05/17 05:22:10;;;;;;;7.97;2.58;;;8.10;99.90;;;;;;4967961;28;20058;-76
2023/05/17 05:24:35;;;;;;;6.03;1.80;;;8.20;99.90;;;;;;4973779;28;20133;-76
2023/05/17 05:27:01;;;;;;;7.82;2.05;;;8.30;99.90;;;;;;4973811;28;20430;-76
2023/05/17 05:29:27;;;;;;;5.70;2.22;;;8.30;99.90;;;;;;4977407;28;20054;-76
2023/05/17 05:31:52;;;;;;;6.75;2.30;;;8.50;99.90;;;;;;4972720;28;20030;-75
2023/05/17 05:34:18;;;;;;;9.55;2.15;;;8.50;99.90;;;;;;4973637;28;20496;-77
2023/05/17 05:36:46;;;;;;;9.80;2.58;;;8.60;99.90;;;;;;4975137;28;20402;-77
2023/05/17 05:39:12;;;;;;;3.60;1.83;;;8.70;99.90;;;;;;4975453;28;20031;-76
2023/05/17 05:41:38;;;;;;;4.72;2.33;;;8.70;99.90;;;;;;4976429;28;20015;-76
2023/05/17 05:44:04;;;;;;;5.25;2.10;;;8.80;99.90;;;;;;4976151;28;20045;-76
2023/05/17 05:46:29;;;;;;;11.38;2.42;;;8.90;99.90;;;;;;4978178;28;20041;-77
2023/05/17 05:48:58;;;;;;;14.45;2.60;;;8.90;99.90;;;;;;4974033;28;20070;-78
2023/05/17 05:51:24;;;;;;;7.43;2.15;;;9.00;99.90;;;;;;4972511;28;20482;-77
2023/05/17 05:53:49;;;;;;;10.38;3.30;;;9.20;99.90;;;;;;4972051;28;20035;-77
2023/05/17 05:56:15;;;;;;;7.50;2.40;;;9.30;99.90;;;;;;4976584;28;20027;-76
2023/05/17 05:58:41;;;;;;;11.50;2.67;;;9.40;99.90;;;;;;4987831;28;20025;-76
2023/05/17 06:01:07;;;;;;;8.25;2.40;;;9.50;99.90;;;;;;4974384;28;20466;-76
2023/05/17 06:03:32;;;;;;;6.53;2.33;;;9.50;99.90;;;;;;4995162;28;20440;-76
2023/05/17 06:05:58;;;;;;;8.40;1.67;;;9.60;99.90;;;;;;4982387;28;20019;-77
2023/05/17 06:08:23;;;;;;;6.53;1.52;;;9.60;99.90;;;;;;4971763;28;20023;-77
2023/05/17 06:10:49;;;;;;;3.88;1.70;;;9.70;99.90;;;;;;4981120;28;20409;-76
2023/05/17 06:13:18;;;;;;;7.90;1.75;;;9.80;99.90;;;;;;4983058;28;20110;-77
2023/05/17 06:15:44;;;;;;;6.50;1.98;;;9.80;99.90;;;;;;4979256;28;20107;-77
2023/05/17 06:18:09;;;;;;;7.13;1.88;;;9.90;99.90;;;;;;4980769;28;20066;-78
2023/05/17 06:20:35;;;;;;;3.08;1.77;;;9.90;99.90;;;;;;4978868;28;20109;-77
2023/05/17 06:23:01;;;;;;;8.55;1.95;;;9.90;99.90;;;;;;4981882;28;20086;-79
2023/05/17 06:25:28;;;;;;;8.70;2.50;;;9.90;99.90;;;;;;4984817;28;20022;-79
2023/05/17 06:27:53;;;;;;;7.38;2.08;;;9.90;99.90;;;;;;4984216;28;20116;-79
2023/05/17 06:30:19;;;;;;;5.45;1.80;;;9.90;99.90;;;;;;4981409;28;20117;-77
2023/05/17 06:32:45;;;;;;;9.13;1.90;;;9.70;99.90;;;;;;4970516;28;20038;-72
2023/05/17 06:35:10;;;;;;;7.70;2.10;;;9.70;99.90;;;;;;4969943;28;20502;-71
2023/05/17 06:37:36;;;;;;;2.22;1.58;;;9.50;99.90;;;;;;4915479;28;20167;-72
2023/05/17 06:40:07;;;;;;;4.00;1.50;;;9.50;99.90;;;;;;4965090;28;20038;-73
2023/05/17 06:42:32;;;;;;;5.88;1.80;;;9.20;99.90;;;;;;4974707;28;20097;-76
2023/05/17 06:44:59;;;;;;;4.78;1.80;;;9.20;99.90;;;;;;4980481;28;20110;-77
2023/05/17 06:47:24;;;;;;;7.35;2.38;;;9.30;99.90;;;;;;4981297;28;20023;-77
2023/05/17 06:49:50;;;;;;;7.57;2.40;;;9.40;99.90;;;;;;4977709;28;20049;-78
2023/05/17 06:52:17;;;;;;;7.95;1.50;;;9.40;99.90;;;;;;4982211;28;20554;-77
2023/05/17 06:54:42;;;;;;;8.35;2.50;;;9.50;99.90;;;;;;4981789;28;20036;-78
2023/05/17 06:57:08;;;;;;;5.00;1.70;;;9.60;99.90;;;;;;4977715;28;20133;-78
2023/05/17 06:59:35;;;;;;;5.75;2.33;;;9.60;99.90;;;;;;4978314;28;20457;-77
2023/05/17 07:02:01;;;;;;;5.45;2.08;;;9.60;99.90;;;;;;4981326;28;20027;-77
2023/05/17 07:04:27;;;;;;;9.57;2.03;;;9.70;99.90;;;;;;4977668;28;20500;-76
2023/05/17 07:06:52;;;;;;;9.07;1.90;;;9.70;99.90;;;;;;4975117;28;20495;-77
2023/05/17 07:09:20;;;;;;;6.57;1.58;;;9.70;99.90;;;;;;4981839;28;20030;-77
2023/05/17 07:11:46;;;;;;;10.02;2.00;;;9.70;99.90;;;;;;4979655;28;20041;-78
2023/05/17 07:14:11;;;;;;;8.60;2.20;;;9.70;99.90;;;;;;4978674;28;20027;-77
2023/05/17 07:16:37;;;;;;;10.10;2.25;;;9.70;99.90;;;;;;4994299;28;20090;-76
2023/05/17 07:19:03;;;;;;;4.32;1.80;;;9.70;99.90;;;;;;4975947;28;20030;-76
2023/05/17 07:21:28;;;;;;;6.78;2.05;;;9.80;99.90;;;;;;4988806;28;20019;-77
2023/05/17 07:23:54;;;;;;;10.55;2.38;;;9.80;99.90;;;;;;4978124;28;20365;-76
2023/05/17 07:26:20;;;;;;;6.28;1.70;;;9.90;99.90;;;;;;4975263;28;20078;-76
2023/05/17 07:28:46;;;;;;;4.72;2.00;;;9.90;99.90;;;;;;4980028;28;20041;-78
2023/05/17 07:31:12;;;;;;;7.03;1.73;;;9.90;99.90;;;;;;4974829;28;20027;-77
2023/05/17 07:33:38;;;;;;;4.25;2.13;;;9.90;99.90;;;;;;4978112;28;20018;-78
2023/05/17 07:36:05;;;;;;;5.85;2.00;;;10.00;99.90;;;;;;4977689;28;20042;-78
2023/05/17 07:38:31;;;;;;;10.23;2.83;;;9.90;99.90;;;;;;4977042;28;20115;-77
2023/05/17 07:40:56;;;;;;;6.93;2.35;;;9.90;99.90;;;;;;4993965;28;20062;-77
2023/05/17 07:43:22;;;;;;;5.95;1.75;;;10.00;99.90;;;;;;4977250;28;20129;-77
2023/05/17 07:45:48;;;;;;;7.00;2.00;;;9.90;99.90;;;;;;4981854;28;20121;-78
2023/05/17 07:48:14;;;;;;;4.90;2.33;;;10.00;99.90;;;;;;4979391;28;20023;-77
2023/05/17 07:50:40;;;;;;;5.32;1.92;;;10.10;99.90;;;;;;4994396;28;20038;-77
2023/05/17 07:53:06;;;;;;;7.20;2.10;;;10.10;99.90;;;;;;4994788;28;20023;-78
2023/05/17 07:55:31;;;;;;;5.68;2.40;;;10.20;99.90;;;;;;4974337;28;20027;-77
2023/05/17 07:57:57;;;;;;;5.53;2.05;;;10.20;99.90;;;;;;4981257;28;20390;-78
2023/05/17 08:00:23;;;;;;;10.52;2.70;;;10.20;99.90;;;;;;4973762;28;20136;-78
2023/05/17 08:02:51;;;;;;;12.80;2.67;;;10.20;99.90;;;;;;4979199;28;20031;-77
2023/05/17 08:05:17;;;;;;;9.30;2.78;;;10.20;99.90;;;;;;4980414;28;20501;-78
2023/05/17 08:07:43;;;;;;;7.82;2.80;;;10.20;99.90;;;;;;4975103;28;20086;-77
2023/05/17 08:10:12;;;;;;;10.60;2.30;;;10.30;99.90;;;;;;4973290;28;20156;-77
2023/05/17 08:12:37;;;;;;;5.85;2.08;;;10.40;99.90;;;;;;4979030;28;20027;-78
2023/05/17 08:15:04;;;;;;;9.13;2.17;;;10.40;99.90;;;;;;5001232;28;20053;-79
2023/05/17 08:17:29;;;;;;;7.72;1.98;;;10.40;99.90;;;;;;4981166;28;20030;-79
2023/05/17 08:19:55;;;;;;;9.27;2.50;;;10.50;99.90;;;;;;4977829;28;20409;-78
2023/05/17 08:22:21;;;;;;;4.43;1.67;;;10.50;99.90;;;;;;4992126;28;20027;-76
2023/05/17 08:24:50;;;;;;;9.30;2.63;;;10.50;99.90;;;;;;4978009;28;20022;-78
2023/05/17 08:27:18;;;;;;;5.05;2.05;;;10.60;99.90;;;;;;4979589;28;20029;-78
2023/05/17 08:29:44;;;;;;;8.35;1.95;;;10.70;99.90;;;;;;4978061;28;20027;-77
2023/05/17 08:32:12;;;;;;;7.05;2.40;;;10.90;99.90;;;;;;4975995;28;20512;-77
2023/05/17 08:34:38;;;;;;;6.00;2.50;;;10.90;99.90;;;;;;4973105;28;20045;-78
2023/05/17 08:37:07;;;;;;;6.18;1.75;;;11.10;99.90;;;;;;4975479;28;20035;-79
2023/05/17 08:39:35;;;;;;;7.18;1.98;;;11.10;99.90;;;;;;4977128;28;20062;-79
2023/05/17 08:42:02;;;;;;;7.82;2.42;;;11.30;99.90;;;;;;4976921;28;20019;-80
2023/05/17 08:44:27;;;;;;;5.47;2.17;;;11.30;99.90;;;;;;4984077;28;20148;-79
2023/05/17 08:46:55;;;;;;;5.20;1.88;;;11.30;99.90;;;;;;4982485;28;20022;-80
2023/05/17 08:49:26;;;;;;;5.45;2.17;;;11.40;99.90;;;;;;4979618;28;20464;-78
2023/05/17 08:51:58;;;;;;;8.18;2.63;;;11.40;99.90;;;;;;4978756;28;20027;-78
2023/05/17 08:54:24;;;;;;;7.03;2.42;;;11.40;99.90;;;;;;4978295;28;20034;-78
2023/05/17 08:56:53;;;;;;;8.27;2.50;;;11.30;99.90;;;;;;4978148;28;20034;-78
2023/05/17 08:59:19;;;;;;;11.80;2.50;;;11.40;99.90;;;;;;4984305;28;20038;-82
2023/05/17 09:01:50;;;;;;;5.90;2.45;;;11.40;99.90;;;;;;4974824;28;20022;-78
2023/05/17 09:04:16;;;;;;;6.20;2.50;;;11.40;99.90;;;;;;4977304;28;20469;-77
2023/05/17 09:06:45;;;;;;;10.43;4.25;;;11.30;99.90;;;;;;4978479;28;20039;-78
2023/05/17 09:09:11;;;;;;;8.70;3.03;;;11.30;99.90;;;;;;4976512;28;20525;-77
2023/05/17 09:11:37;;;;;;;6.97;3.17;;;11.40;99.90;;;;;;4972214;28;20024;-78
2023/05/17 09:14:04;;;;;;;5.50;2.38;;;11.40;99.90;;;;;;4977211;28;20039;-77
2023/05/17 09:16:32;;;;;;;8.95;2.75;;;11.30;99.90;;;;;;4982555;28;20038;-77
2023/05/17 09:18:59;;;;;;;6.70;2.90;;;11.30;99.90;;;;;;4984823;28;20049;-77
2023/05/17 09:21:26;;;;;;;8.43;3.08;;;11.30;99.90;;;;;;4978587;28;20533;-77
2023/05/17 09:23:53;;;;;;;7.28;2.80;;;11.30;99.90;;;;;;4978447;28;20513;-78
2023/05/17 09:26:20;;;;;;;9.45;3.22;;;11.30;99.90;;;;;;4971739;28;20029;-78
2023/05/17 09:28:47;;;;;;;7.10;2.45;;;11.30;99.90;;;;;;4973977;28;20047;-77
2023/05/17 09:31:16;;;;;;;8.05;2.97;;;11.40;99.90;;;;;;4973914;28;20054;-78
2023/05/17 09:33:47;;;;;;;12.00;4.07;;;11.60;99.90;;;;;;4975086;28;20113;-77
2023/05/17 09:36:20;;;;;;;9.00;3.58;;;11.60;99.90;;;;;;4979253;28;20472;-78
2023/05/17 09:39:00;;;;;;;9.68;3.17;;;11.60;99.90;;;;;;4979491;28;20037;-78
2023/05/17 09:41:30;;;;;;;7.95;3.00;;;11.70;99.90;;;;;;4976366;28;20051;-78
2023/05/17 09:44:08;;;;;;;10.02;3.78;;;11.70;99.90;;;;;;4977355;28;20043;-78
2023/05/17 09:46:34;;;;;;;7.75;2.45;;;11.80;99.90;;;;;;4974386;28;20043;-79
2023/05/17 09:49:02;;;;;;;9.20;3.13;;;11.80;99.90;;;;;;4971625;28;20465;-77
2023/05/17 09:51:36;;;;;;;9.93;2.85;;;11.70;99.90;;;;;;4974909;28;20077;-80
2023/05/17 09:54:11;;;;;;;12.23;3.05;;;11.80;99.90;;;;;;4974114;28;20114;-78
2023/05/17 09:56:37;;;;;;;8.48;3.45;;;11.80;99.90;;;;;;4984699;28;20059;-78
2023/05/17 09:59:14;;;;;;;11.10;3.15;;;11.80;99.90;;;;;;4989748;28;20079;-78
2023/05/17 10:01:41;;;;;;;9.90;3.60;;;11.90;99.90;;;;;;4986478;28;20389;-78
2023/05/17 10:04:10;;;;;;;7.50;3.58;;;12.00;99.90;;;;;;4979196;28;20019;-78
2023/05/17 10:06:41;;;;;;;8.57;3.47;;;12.00;99.90;;;;;;4994697;28;20026;-79
2023/05/17 10:09:11;;;;;;;9.57;3.17;;;12.10;99.90;;;;;;4978346;28;20058;-81
2023/05/17 10:11:39;;;;;;;9.60;3.17;;;12.00;99.90;;;;;;4994118;23;20043;-73
2023/05/17 10:14:10;;;;;;;5.97;2.60;;;12.10;99.90;;;;;;4955866;28;20548;-75
2023/05/17 10:16:37;;;;;;;7.90;3.40;;;12.20;99.90;;;;;;4963440;28;20886;-75
2023/05/17 10:19:04;;;;;;;5.60;2.65;;;12.20;99.90;;;;;;4960919;28;20039;-75
2023/05/17 10:21:31;;;;;;;6.35;2.47;;;12.20;99.90;;;;;;4963626;28;20033;-75
2023/05/17 10:24:00;;;;;;;5.13;2.83;;;12.20;99.90;;;;;;4961718;28;20027;-73
2023/05/17 10:26:27;;;;;;;7.35;2.33;;;12.20;99.70;;;;;;4961103;28;20019;-75
2023/05/17 10:28:59;;;;;;;5.28;2.63;;;12.20;99.80;;;;;;4959335;28;20097;-75
2023/05/17 10:31:29;;;;;;;6.55;2.60;;;12.30;99.90;;;;;;4960804;28;20445;-75
2023/05/17 10:33:55;;;;;;;5.13;2.65;;;12.30;99.80;;;;;;4959574;28;20026;-75
2023/05/17 10:36:23;;;;;;;5.18;2.78;;;12.40;99.90;;;;;;4960653;28;20085;-75
2023/05/17 10:38:51;;;;;;;9.13;3.22;;;12.40;99.90;;;;;;4961161;28;20371;-75
2023/05/17 10:41:22;;;;;;;5.72;2.83;;;12.40;99.90;;;;;;4962860;28;20035;-75
2023/05/17 10:43:49;;;;;;;7.32;3.03;;;12.40;99.70;;;;;;4962519;28;20030;-74
2023/05/17 10:46:17;;;;;;;10.45;3.50;;;12.40;99.80;;;;;;4963101;28;20242;-74
2023/05/17 10:48:44;;;;;;;8.70;2.92;;;12.50;99.50;;;;;;4963814;28;20035;-74
2023/05/17 10:51:10;;;;;;;4.90;2.40;;;12.40;99.20;;;;;;4963929;28;20524;-74
2023/05/17 10:54:05;;;;;;;5.75;2.95;;;12.40;99.30;;;;;;4966387;28;20561;-75
2023/05/17 10:56:32;;;;;;;5.28;3.08;;;12.40;99.40;;;;;;4965784;28;20035;-74
2023/05/17 10:59:34;;;;;;;10.95;4.65;;;12.30;99.70;;;;;;4966311;28;20046;-75
2023/05/17 11:02:08;;;;;;;8.68;2.88;;;12.30;99.90;;;;;;4907476;29;20032;-74
2023/05/17 11:04:40;;;;;;;6.40;3.22;;;12.30;99.90;;;;;;4958238;28;20031;-74
2023/05/17 11:07:20;;;;;;;11.27;2.83;;;12.40;99.90;;;;;;4966601;28;20051;-74
2023/05/17 11:09:53;;;;;;;8.40;3.38;;;12.40;99.50;;;;;;4970126;28;20118;-74
2023/05/17 11:12:37;;;;;;;5.75;2.72;;;12.40;99.20;;;;;;4968758;28;20038;-74
2023/05/17 11:15:07;;;;;;;6.95;3.22;;;12.50;98.80;;;;;;4969298;28;20026;-74
2023/05/17 11:17:49;;;;;;;6.78;2.92;;;12.50;98.80;;;;;;4971469;28;20027;-74
2023/05/17 11:20:15;;;;;;;6.82;2.92;;;12.50;99.50;;;;;;4969838;28;20685;-74
2023/05/17 11:23:03;;;;;;;10.20;3.40;;;12.60;99.50;;;;;;4969064;28;20061;-74
2023/05/17 11:25:31;;;;;;;4.68;2.70;;;12.70;99.50;;;;;;4966743;28;20022;-75
2023/05/17 11:27:58;;;;;;;5.78;2.42;;;12.70;98.80;;;;;;4961525;28;20034;-74
2023/05/17 11:30:31;;;;;;;6.85;2.85;;;12.70;98.30;;;;;;4970294;28;20094;-75
2023/05/17 11:33:00;;;;;;;6.57;2.57;;;12.70;98.40;;;;;;4968462;28;20057;-74
2023/05/17 11:35:28;;;;;;;5.68;2.50;;;12.80;98.40;;;;;;4969215;28;20117;-75
2023/05/17 11:38:19;;;;;;;8.40;3.03;;;12.70;98.00;;;;;;4970124;28;20065;-75
2023/05/17 11:40:51;;;;;;;8.63;2.88;;;12.70;98.20;;;;;;4964201;28;20346;-75
2023/05/17 11:43:17;;;;;;;6.30;3.20;;;12.70;98.10;;;;;;4980136;28;20033;-74
2023/05/17 11:45:50;;;;;;;5.43;2.92;;;12.80;98.30;;;;;;4967675;28;20109;-74
2023/05/17 11:48:18;;;;;;;5.80;2.40;;;12.80;98.00;;;;;;4964973;28;20074;-74
2023/05/17 11:50:45;;;;;;;5.00;2.30;;;12.70;97.20;;;;;;4965153;28;20099;-74
2023/05/17 11:53:11;;;;;;;4.95;2.72;;;12.70;96.90;;;;;;4964758;28;20038;-75
2023/05/17 11:55:43;;;;;;;5.72;2.08;;;12.70;97.20;;;;;;4985940;28;20161;-75
2023/05/17 11:58:11;;;;;;;7.28;3.35;;;12.70;97.00;;;;;;4967348;28;20041;-75
2023/05/17 12:00:39;;;;;;;6.80;2.63;;;12.70;97.10;;;;;;4964807;28;20058;-75
2023/05/17 12:03:30;;;;;;;7.22;2.58;;;12.70;96.30;;;;;;4965332;28;20026;-74
2023/05/17 12:06:06;;;;;;;5.43;2.47;;;12.70;96.30;;;;;;4967869;28;20396;-75
2023/05/17 12:08:35;;;;;;;5.28;2.53;;;12.70;96.30;;;;;;4966607;28;20110;-75
2023/05/17 12:11:01;;;;;;;8.60;2.88;;;12.70;96.10;;;;;;4965966;28;20033;-75
2023/05/17 12:13:31;;;;;;;8.88;2.75;;;12.80;96.50;;;;;;4963702;28;20038;-75
2023/05/17 12:16:01;;;;;;;5.65;2.67;;;12.80;96.90;;;;;;4964986;28;20042;-75
2023/05/17 12:18:38;;;;;;;6.70;2.58;;;12.90;96.70;;;;;;4964501;28;21402;-75
2023/05/17 12:21:06;;;;;;;4.88;2.38;;;12.90;96.10;;;;;;4964054;28;20047;-75
2023/05/17 12:23:38;;;;;;;9.35;3.55;;;12.90;96.00;;;;;;4967047;28;20115;-75
2023/05/17 12:26:18;;;;;;;7.45;3.38;;;13.00;96.00;;;;;;4981729;28;20032;-75
2023/05/17 12:28:55;;;;;;;6.85;3.15;;;13.00;95.80;;;;;;4965939;28;20038;-75
2023/05/17 12:31:31;;;;;;;6.85;3.00;;;13.00;96.10;;;;;;4965316;28;20027;-75
2023/05/17 12:33:58;;;;;;;5.82;3.08;;;13.00;96.70;;;;;;4962780;28;20152;-75
2023/05/17 12:36:26;;;;;;;9.00;3.35;;;12.90;96.10;;;;;;4961445;28;20102;-75
2023/05/17 12:38:52;;;;;;;8.13;3.33;;;12.90;96.00;;;;;;4963776;28;20099;-75
2023/05/17 12:41:20;;;;;;;6.85;2.90;;;13.00;95.90;;;;;;4961681;28;20030;-75
2023/05/17 12:43:46;;;;;;;8.88;3.13;;;12.90;96.20;;;;;;4956758;28;20046;-74
2023/05/17 12:46:17;;;;;;;8.05;3.20;;;13.00;95.90;;;;;;4953669;28;20035;-75
2023/05/17 12:48:44;;;;;;;8.85;3.53;;;13.00;95.40;;;;;;4976641;28;20354;-74
2023/05/17 12:51:13;;;;;;;9.27;3.40;;;13.00;95.60;;;;;;4959725;28;20129;-74
2023/05/17 12:53:40;;;;;;;8.43;3.70;;;13.00;95.60;;;;;;4959772;28;20026;-74
2023/05/17 12:56:06;;;;;;;7.25;2.80;;;13.10;95.60;;;;;;4961260;28;20026;-74